ΕΜΥ, Εθνική Μετεωρολογική Υπηρεσία - Δελτία Καιρού, Προγνώσεις

ΑΕΡΟΝΑΥΤΙΛΙΑ

GREEK AIRPORTS CODES

LGTL 160500Z 34005KT 9999 FEW018 BKN025 21/19 Q1011 RMK FEW080=

EUROPEAN AIRPORTS CODES

LFPO 160500Z 23007KT 200V260 9999 BKN049 SCT120 14/11 Q1020NOSIG=